createdAt,value
2017-02-15T00:00:10.061Z,62.02
2017-02-15T00:01:10.471Z,62.12
2017-02-15T00:02:10.067Z,61.83
2017-02-15T00:03:10.489Z,61.83
2017-02-15T00:04:10.491Z,62.31
2017-02-15T00:05:10.118Z,62.31
2017-02-15T00:06:10.125Z,62.31
2017-02-15T00:07:10.531Z,62.31
2017-02-15T00:08:10.537Z,62.31
2017-02-15T00:09:10.145Z,62.4
2017-02-15T00:10:10.561Z,62.21
2017-02-15T00:11:10.577Z,62.31
2017-02-15T00:12:10.586Z,62.4
2017-02-15T00:13:10.596Z,62.31
2017-02-15T00:14:10.608Z,62.4
2017-02-15T00:15:10.622Z,62.5
2017-02-15T00:16:10.232Z,62.4
2017-02-15T00:17:10.656Z,62.4
2017-02-15T00:18:10.256Z,62.31
2017-02-15T00:19:10.666Z,62.12
2017-02-15T00:20:10.676Z,62.31
2017-02-15T00:21:10.699Z,62.4
2017-02-15T00:22:10.701Z,62.5
2017-02-15T00:23:10.712Z,62.02
2017-02-15T00:24:10.723Z,61.93
2017-02-15T00:25:10.830Z,62.12
2017-02-15T00:26:10.338Z,62.4
2017-02-15T00:27:10.359Z,62.4
2017-02-15T00:28:10.368Z,62.4
2017-02-15T00:29:10.379Z,62.4
2017-02-15T00:30:10.393Z,62.4
2017-02-15T00:31:10.395Z,62.4
2017-02-15T00:32:10.405Z,62.4
2017-02-15T00:33:10.423Z,62.4
2017-02-15T00:34:10.430Z,62.31
2017-02-15T00:35:10.462Z,62.4
2017-02-15T00:36:10.860Z,62.31
2017-02-15T00:37:10.458Z,62.31
2017-02-15T00:38:10.880Z,62.02
2017-02-15T00:39:10.484Z,62.02
2017-02-15T00:40:10.503Z,62.12
2017-02-15T00:41:10.523Z,62.31
2017-02-15T00:42:10.530Z,62.59
2017-02-15T00:43:10.527Z,62.02
2017-02-15T00:44:10.946Z,62.21
2017-02-15T00:45:10.967Z,62.31
2017-02-15T00:46:10.969Z,62.4
2017-02-15T00:47:10.988Z,62.4
2017-02-15T00:48:10.583Z,62.5
2017-02-15T00:49:11.038Z,62.12
2017-02-15T00:50:11.012Z,62.31
2017-02-15T00:51:10.625Z,62.4
2017-02-15T00:52:10.636Z,62.31
2017-02-15T00:53:10.640Z,62.21
2017-02-15T00:54:10.665Z,62.4
2017-02-15T00:55:11.156Z,62.21
2017-02-15T00:56:10.687Z,62.31
2017-02-15T00:57:11.091Z,62.31
2017-02-15T00:58:11.118Z,62.31
2017-02-15T00:59:10.707Z,62.5
2017-02-15T01:00:10.745Z,62.31
2017-02-15T01:01:11.119Z,62.4
2017-02-15T01:02:11.145Z,62.4
2017-02-15T01:03:10.761Z,62.31
2017-02-15T01:04:11.155Z,62.37
2017-02-15T01:05:10.768Z,62.4
2017-02-15T01:06:11.201Z,62.37
2017-02-15T01:07:11.186Z,62.37
2017-02-15T01:08:11.215Z,62.5
2017-02-15T01:09:11.253Z,62.37
2017-02-15T01:10:11.255Z,62.5
2017-02-15T01:11:11.241Z,62.56
2017-02-15T01:12:11.271Z,62.47
2017-02-15T01:13:11.271Z,62.56
2017-02-15T01:14:11.270Z,62.47
2017-02-15T01:15:11.305Z,62.56
2017-02-15T01:16:11.303Z,62.66
2017-02-15T01:17:11.310Z,62.56
2017-02-15T01:18:11.412Z,62.66
2017-02-15T01:19:11.535Z,62.47
2017-02-15T01:20:11.474Z,62.56
2017-02-15T01:21:11.458Z,62.28
2017-02-15T01:22:11.476Z,62.47
2017-02-15T01:23:11.471Z,62.56
2017-02-15T01:24:11.500Z,62.56
2017-02-15T01:25:11.495Z,62.47
2017-02-15T01:26:11.540Z,62.56
2017-02-15T01:27:11.545Z,62.56
2017-02-15T01:28:11.546Z,62.56
2017-02-15T01:29:11.554Z,62.75
2017-02-15T01:30:11.171Z,62.75
2017-02-15T01:31:11.571Z,62.75
2017-02-15T01:32:11.574Z,62.47
2017-02-15T01:33:11.579Z,62.66
2017-02-15T01:34:11.593Z,62.85
2017-02-15T01:35:11.570Z,62.47
2017-02-15T01:36:11.631Z,62.37
2017-02-15T01:37:11.213Z,62.56
2017-02-15T01:38:11.642Z,62.75
2017-02-15T01:39:11.645Z,62.75
2017-02-15T01:40:11.628Z,62.47
2017-02-15T01:41:11.665Z,62.75
2017-02-15T01:42:11.671Z,62.75
2017-02-15T01:43:11.682Z,62.75
2017-02-15T01:44:11.684Z,62.75
2017-02-15T01:45:11.697Z,62.75
2017-02-15T01:46:11.224Z,62.85
2017-02-15T01:47:11.647Z,62.75
2017-02-15T01:48:11.651Z,62.94
2017-02-15T01:49:11.673Z,63.13
2017-02-15T01:50:11.673Z,62.75
2017-02-15T01:51:11.685Z,63.04
2017-02-15T01:52:11.703Z,63.04
2017-02-15T01:53:11.694Z,62.56
2017-02-15T01:54:11.787Z,62.66
2017-02-15T01:55:11.730Z,63.13
2017-02-15T01:56:11.739Z,63.04
2017-02-15T01:57:11.741Z,63.04
2017-02-15T01:58:11.770Z,63.13
2017-02-15T01:59:11.778Z,63.13
2017-02-15T02:00:11.783Z,62.94
2017-02-15T02:01:11.794Z,62.75
2017-02-15T02:02:11.796Z,62.66
2017-02-15T02:03:11.826Z,62.75
2017-02-15T02:04:11.826Z,62.85
2017-02-15T02:05:11.863Z,62.85
2017-02-15T02:06:11.839Z,62.75
2017-02-15T02:07:11.857Z,62.94
2017-02-15T02:08:11.864Z,62.94
2017-02-15T02:09:11.878Z,62.94
2017-02-15T02:10:12.086Z,62.94
2017-02-15T02:11:11.887Z,62.94
2017-02-15T02:12:11.910Z,62.85
2017-02-15T02:13:11.938Z,62.94
2017-02-15T02:14:11.935Z,62.85
2017-02-15T02:15:11.933Z,62.75
2017-02-15T02:16:11.934Z,62.94
2017-02-15T02:17:11.984Z,62.75
2017-02-15T02:18:11.973Z,63.04
2017-02-15T02:19:11.976Z,62.75
2017-02-15T02:20:11.997Z,63.04
2017-02-15T02:21:12.005Z,62.94
2017-02-15T02:22:12.015Z,62.85
2017-02-15T02:23:12.032Z,62.75
2017-02-15T02:24:12.032Z,62.75
2017-02-15T02:25:12.053Z,62.75
2017-02-15T02:26:12.049Z,62.94
2017-02-15T02:27:12.070Z,62.85
2017-02-15T02:28:12.079Z,63.04
2017-02-15T02:29:12.088Z,62.75
2017-02-15T02:30:12.091Z,62.94
2017-02-15T02:31:12.110Z,62.94
2017-02-15T02:32:12.127Z,62.85
2017-02-15T02:33:12.138Z,62.85
2017-02-15T02:34:12.150Z,63.04
2017-02-15T02:35:12.145Z,62.75
2017-02-15T02:36:12.168Z,62.75
2017-02-15T02:37:12.176Z,62.75
2017-02-15T02:38:12.185Z,62.82
2017-02-15T02:39:12.197Z,63.42
2017-02-15T02:40:12.194Z,63.48
2017-02-15T02:41:12.216Z,63.32
2017-02-15T02:42:12.226Z,63.42
2017-02-15T02:43:12.247Z,63.32
2017-02-15T02:44:12.255Z,63.1
2017-02-15T02:45:12.259Z,63.32
2017-02-15T02:46:12.269Z,63.23
2017-02-15T02:47:12.287Z,63.13
2017-02-15T02:48:12.276Z,63.13
2017-02-15T02:49:12.301Z,63.23
2017-02-15T02:50:12.313Z,63.2
2017-02-15T02:51:12.320Z,63.57
2017-02-15T02:52:12.329Z,63.2
2017-02-15T02:53:12.339Z,63.13
2017-02-15T02:54:11.956Z,63.57
2017-02-15T02:55:12.364Z,63.48
2017-02-15T02:56:12.374Z,63.2
2017-02-15T02:57:11.987Z,63.29
2017-02-15T02:58:12.398Z,63.29
2017-02-15T02:59:12.409Z,63.29
2017-02-15T03:00:12.009Z,63.48
2017-02-15T03:01:26.952Z,63.2
2017-02-15T03:02:12.452Z,63.67
2017-02-15T03:03:12.449Z,63.48
2017-02-15T03:04:12.470Z,63.48
2017-02-15T03:05:12.479Z,63.39
2017-02-15T03:06:12.086Z,63.48
2017-02-15T03:07:12.474Z,63.39
2017-02-15T03:08:12.606Z,63.39
2017-02-15T03:09:12.514Z,63.29
2017-02-15T03:10:12.523Z,63.29
2017-02-15T03:11:12.533Z,63.42
2017-02-15T03:12:12.536Z,63.01
2017-02-15T03:13:12.552Z,63.1
2017-02-15T03:14:12.553Z,63.2
2017-02-15T03:15:12.172Z,63.1
2017-02-15T03:16:12.595Z,63.2
2017-02-15T03:17:12.595Z,63.29
2017-02-15T03:18:12.717Z,63.39
2017-02-15T03:19:12.223Z,63.1
2017-02-15T03:20:12.722Z,63.29
2017-02-15T03:21:12.731Z,63.67
2017-02-15T03:22:12.738Z,63.2
2017-02-15T03:23:12.748Z,63.29
2017-02-15T03:24:12.744Z,63.29
2017-02-15T03:25:12.277Z,63.39
2017-02-15T03:26:12.763Z,63.39
2017-02-15T03:27:12.775Z,63.2
2017-02-15T03:28:12.778Z,63.29
2017-02-15T03:29:12.790Z,63.2
2017-02-15T03:30:12.791Z,63.29
2017-02-15T03:31:12.858Z,63.48
2017-02-15T03:32:12.839Z,64.04
2017-02-15T03:33:12.847Z,63.48
2017-02-15T03:34:12.876Z,63.48
2017-02-15T03:35:12.883Z,63.48
2017-02-15T03:36:12.393Z,63.57
2017-02-15T03:37:12.901Z,63.29
2017-02-15T03:38:12.902Z,63.57
2017-02-15T03:39:12.813Z,63.76
2017-02-15T03:40:12.837Z,63.48
2017-02-15T03:41:12.843Z,63.57
2017-02-15T03:42:12.964Z,63.76
2017-02-15T03:43:12.862Z,63.48
2017-02-15T03:44:12.878Z,63.48
2017-02-15T03:45:12.982Z,63.95
2017-02-15T03:46:13.007Z,63.67
2017-02-15T03:47:13.014Z,63.76
2017-02-15T03:48:13.087Z,63.85
2017-02-15T03:49:12.927Z,63.48
2017-02-15T03:50:12.942Z,63.85
2017-02-15T03:51:12.958Z,63.67
2017-02-15T03:52:12.969Z,63.67
2017-02-15T03:53:12.966Z,63.57
2017-02-15T03:54:12.979Z,63.76
2017-02-15T03:55:12.994Z,63.76
2017-02-15T03:56:12.984Z,63.85
2017-02-15T03:57:13.006Z,63.76
2017-02-15T03:58:13.021Z,63.67
2017-02-15T03:59:13.026Z,63.76
2017-02-15T04:00:13.038Z,63.85
2017-02-15T04:01:13.052Z,63.76
2017-02-15T04:02:12.660Z,63.76
2017-02-15T04:03:13.076Z,63.76
2017-02-15T04:04:13.085Z,63.76
2017-02-15T04:05:13.076Z,63.76
2017-02-15T04:06:13.101Z,63.76
2017-02-15T04:07:13.112Z,63.85
2017-02-15T04:08:13.120Z,63.67
2017-02-15T04:09:13.136Z,63.76
2017-02-15T04:10:12.747Z,63.76
2017-02-15T04:11:13.154Z,63.76
2017-02-15T04:12:13.161Z,63.76
2017-02-15T04:13:13.158Z,63.85
2017-02-15T04:14:13.183Z,63.85
2017-02-15T04:15:13.177Z,63.95
2017-02-15T04:16:13.199Z,63.95
2017-02-15T04:17:13.213Z,64.04
2017-02-15T04:18:13.229Z,64.04
2017-02-15T04:19:13.234Z,64.14
2017-02-15T04:20:12.847Z,64.14
2017-02-15T04:21:13.252Z,64.14
2017-02-15T04:22:13.260Z,64.14
2017-02-15T04:23:13.284Z,64.14
2017-02-15T04:24:13.282Z,64.14
2017-02-15T04:25:13.290Z,64.23
2017-02-15T04:26:13.302Z,64.23
2017-02-15T04:27:13.321Z,63.76
2017-02-15T04:28:13.321Z,63.76
2017-02-15T04:29:13.328Z,63.76
2017-02-15T04:30:13.326Z,63.85
2017-02-15T04:31:13.354Z,64.04
2017-02-15T04:32:13.357Z,63.76
2017-02-15T04:33:13.373Z,63.76
2017-02-15T04:34:13.391Z,63.85
2017-02-15T04:35:13.400Z,63.76
2017-02-15T04:36:13.411Z,64.04
2017-02-15T04:37:13.403Z,64.04
2017-02-15T04:38:13.415Z,63.95
2017-02-15T04:39:13.427Z,63.67
2017-02-15T04:40:13.430Z,63.85
2017-02-15T04:41:13.460Z,63.85
2017-02-15T04:42:13.473Z,63.85
2017-02-15T04:43:13.473Z,63.85
2017-02-15T04:44:13.493Z,63.95
2017-02-15T04:45:13.495Z,63.85
2017-02-15T04:46:13.495Z,63.85
2017-02-15T04:47:13.525Z,63.57
2017-02-15T04:48:13.527Z,63.76
2017-02-15T04:49:13.532Z,63.95
2017-02-15T04:50:13.538Z,64.33
2017-02-15T04:51:13.158Z,64.33
2017-02-15T04:52:13.563Z,64.42
2017-02-15T04:53:13.576Z,64.23
2017-02-15T04:54:13.573Z,64.42
2017-02-15T04:55:13.588Z,64.23
2017-02-15T04:56:13.588Z,64.42
2017-02-15T04:57:13.611Z,64.61
2017-02-15T04:58:13.222Z,64.52
2017-02-15T04:59:13.641Z,64.23
2017-02-15T05:00:13.650Z,64.42
2017-02-15T05:01:13.683Z,64.14
2017-02-15T05:02:13.674Z,64.23
2017-02-15T05:03:13.688Z,64.33
2017-02-15T05:04:13.688Z,64.33
2017-02-15T05:05:13.706Z,64.42
2017-02-15T05:06:13.717Z,64.23
2017-02-15T05:07:13.697Z,64.23
2017-02-15T05:08:13.716Z,64.23
2017-02-15T05:09:13.731Z,64.23
2017-02-15T05:10:13.734Z,64.23
2017-02-15T05:11:13.739Z,64.33
2017-02-15T05:12:13.773Z,64.14
2017-02-15T05:13:13.773Z,64.23
2017-02-15T05:14:13.486Z,64.14
2017-02-15T05:15:13.797Z,63.95
2017-02-15T05:16:13.805Z,64.33
2017-02-15T05:17:13.814Z,64.04
2017-02-15T05:18:13.441Z,64.52
2017-02-15T05:19:13.835Z,63.85
2017-02-15T05:20:13.842Z,64.61
2017-02-15T05:21:13.857Z,64.52
2017-02-15T05:22:13.467Z,64.42
2017-02-15T05:23:13.866Z,64.71
2017-02-15T05:24:13.891Z,64.68
2017-02-15T05:25:13.890Z,64.71
2017-02-15T05:26:13.898Z,64.77
2017-02-15T05:27:13.916Z,65
2017-02-15T05:28:13.520Z,64.71
2017-02-15T05:29:13.934Z,65
2017-02-15T05:30:13.927Z,64.71
2017-02-15T05:31:13.956Z,64.77
2017-02-15T05:32:13.548Z,65.06
2017-02-15T05:33:13.979Z,64.23
2017-02-15T05:34:13.975Z,65.06
2017-02-15T05:35:13.991Z,65.15
2017-02-15T05:36:13.996Z,65
2017-02-15T05:37:14.008Z,64.96
2017-02-15T05:38:14.027Z,64.96
2017-02-15T05:39:13.624Z,64.77
2017-02-15T05:40:13.631Z,64.68
2017-02-15T05:41:14.050Z,64.81
2017-02-15T05:42:14.066Z,65.19
2017-02-15T05:43:14.068Z,64.87
2017-02-15T05:44:14.090Z,64.87
2017-02-15T05:45:14.099Z,64.2
2017-02-15T05:46:14.103Z,64.77
2017-02-15T05:47:14.104Z,64.39
2017-02-15T05:48:14.107Z,64.58
2017-02-15T05:49:14.133Z,64.96
2017-02-15T05:50:14.145Z,64.77
2017-02-15T05:51:14.202Z,64.77
2017-02-15T05:52:14.169Z,64.58
2017-02-15T05:53:14.176Z,64.77
2017-02-15T05:54:14.181Z,64.49
2017-02-15T05:55:14.167Z,64.68
2017-02-15T05:56:13.809Z,64.68
2017-02-15T05:57:14.206Z,64.68
2017-02-15T05:58:14.224Z,64.87
2017-02-15T05:59:14.234Z,65.25
2017-02-15T06:00:13.840Z,65.15
2017-02-15T06:01:14.255Z,65.15
2017-02-15T06:02:14.250Z,65.25
2017-02-15T06:03:14.263Z,65.44
2017-02-15T06:04:13.882Z,65.44
2017-02-15T06:05:13.878Z,65.25
2017-02-15T06:06:14.299Z,65.34
2017-02-15T06:07:14.289Z,65.25
2017-02-15T06:08:13.918Z,65.34
2017-02-15T06:09:14.332Z,65.06
2017-02-15T06:10:14.328Z,65.25
2017-02-15T06:11:13.946Z,65.44
2017-02-15T06:12:13.952Z,65.06
2017-02-15T06:13:14.353Z,64.77
2017-02-15T06:14:13.964Z,64.87
2017-02-15T06:15:14.378Z,64.87
2017-02-15T06:16:14.394Z,64.87
2017-02-15T06:17:14.402Z,64.77
2017-02-15T06:18:14.410Z,64.77
2017-02-15T06:19:14.413Z,65.06
2017-02-15T06:20:14.433Z,65.06
2017-02-15T06:21:14.424Z,64.96
2017-02-15T06:22:14.461Z,65.25
2017-02-15T06:23:14.451Z,65.63
2017-02-15T06:24:14.074Z,65.06
2017-02-15T06:25:14.485Z,65.34
2017-02-15T06:26:14.491Z,65.53
2017-02-15T06:27:14.490Z,65.44
2017-02-15T06:28:14.110Z,65.44
2017-02-15T06:29:14.133Z,65.44
2017-02-15T06:30:14.549Z,65.44
2017-02-15T06:31:14.546Z,65.15
2017-02-15T06:32:14.159Z,65.44
2017-02-15T06:33:14.557Z,65.44
2017-02-15T06:34:14.550Z,65.34
2017-02-15T06:35:14.658Z,65.44
2017-02-15T06:36:14.584Z,65.53
2017-02-15T06:37:14.601Z,65.44
2017-02-15T06:38:14.604Z,65.44
2017-02-15T06:39:14.617Z,65.53
2017-02-15T06:40:14.628Z,65.63
2017-02-15T06:41:14.235Z,65.34
2017-02-15T06:42:14.644Z,65.53
2017-02-15T06:43:14.653Z,65.34
2017-02-15T06:44:14.252Z,65.34
2017-02-15T06:45:14.257Z,65.25
2017-02-15T06:46:14.691Z,65.34
2017-02-15T06:47:14.682Z,65.34
2017-02-15T06:48:14.702Z,65.53
2017-02-15T06:49:14.711Z,65.34
2017-02-15T06:50:14.309Z,65.34
2017-02-15T06:51:14.741Z,65.53
2017-02-15T06:52:14.337Z,65.34
2017-02-15T06:53:14.752Z,65.15
2017-02-15T06:54:14.772Z,65.34
2017-02-15T06:55:14.387Z,65.25
2017-02-15T06:56:14.377Z,65.44
2017-02-15T06:57:14.386Z,65.25
2017-02-15T06:58:14.794Z,65.15
2017-02-15T06:59:14.811Z,65.34
2017-02-15T07:00:14.805Z,65.44
2017-02-15T07:01:14.828Z,65.53
2017-02-15T07:02:14.429Z,65.44
2017-02-15T07:03:14.861Z,65.63
2017-02-15T07:04:14.858Z,65.44
2017-02-15T07:05:14.465Z,65.44
2017-02-15T07:06:14.883Z,65.72
2017-02-15T07:07:14.885Z,65.56
2017-02-15T07:08:14.897Z,65.72
2017-02-15T07:09:14.922Z,65.72
2017-02-15T07:10:14.921Z,65.81
2017-02-15T07:11:14.925Z,66.13
2017-02-15T07:12:14.525Z,65.84
2017-02-15T07:13:14.538Z,65.53
2017-02-15T07:14:14.966Z,65.75
2017-02-15T07:15:14.560Z,65.66
2017-02-15T07:16:14.571Z,65.75
2017-02-15T07:17:14.979Z,66.13
2017-02-15T07:18:14.597Z,65.75
2017-02-15T07:19:14.998Z,66.51
2017-02-15T07:20:15.017Z,66.51
2017-02-15T07:21:15.011Z,66.51
2017-02-15T07:22:15.018Z,66.13
2017-02-15T07:23:15.056Z,66.32
2017-02-15T07:24:14.635Z,66.22
2017-02-15T07:25:14.649Z,66.51
2017-02-15T07:26:14.672Z,66.22
2017-02-15T07:27:15.067Z,66.22
2017-02-15T07:28:14.691Z,66.13
2017-02-15T07:29:15.090Z,66.32
2017-02-15T07:30:15.104Z,66.03
2017-02-15T07:31:15.121Z,66.51
2017-02-15T07:32:14.719Z,66.13
2017-02-15T07:33:15.134Z,66.32
2017-02-15T07:34:15.149Z,66.22
2017-02-15T07:35:15.303Z,66.32
2017-02-15T07:36:14.781Z,66.41
2017-02-15T07:37:14.777Z,66.22
2017-02-15T07:38:15.276Z,66.32
2017-02-15T07:39:15.269Z,66.32
2017-02-15T07:40:14.803Z,66.03
2017-02-15T07:41:14.810Z,66.41
2017-02-15T07:42:14.832Z,66.51
2017-02-15T07:43:15.311Z,65.94
2017-02-15T07:44:14.854Z,66.13
2017-02-15T07:45:15.318Z,66.22
2017-02-15T07:46:15.330Z,66.13
2017-02-15T07:47:14.865Z,65.94
2017-02-15T07:48:14.912Z,66.13
2017-02-15T07:49:14.908Z,66.03
2017-02-15T07:50:15.321Z,65.94
2017-02-15T07:51:14.915Z,66.32
2017-02-15T07:52:15.364Z,66.22
2017-02-15T07:53:14.928Z,66.32
2017-02-15T07:54:15.354Z,65.84
2017-02-15T07:55:15.344Z,66.22
2017-02-15T07:56:15.389Z,66.22
2017-02-15T07:57:15.036Z,66.22
2017-02-15T07:58:15.412Z,66.13
2017-02-15T07:59:15.379Z,65.94
2017-02-15T08:00:15.387Z,66.6
2017-02-15T08:01:15.018Z,65.94
2017-02-15T08:02:15.423Z,66.51
2017-02-15T08:03:15.438Z,65.94
2017-02-15T08:04:15.041Z,65.75
2017-02-15T08:05:15.056Z,66.6
2017-02-15T08:06:15.060Z,66.22
2017-02-15T08:07:15.465Z,66.89
2017-02-15T08:08:15.467Z,66.8
2017-02-15T08:09:15.497Z,66.13
2017-02-15T08:10:15.493Z,66.03
2017-02-15T08:11:15.102Z,66.45
2017-02-15T08:12:15.530Z,66.45
2017-02-15T08:13:15.532Z,66.83
2017-02-15T08:14:15.130Z,67.02
2017-02-15T08:15:15.151Z,66.35
2017-02-15T08:16:15.546Z,66.93
2017-02-15T08:17:15.568Z,67.02
2017-02-15T08:18:15.182Z,66.45
2017-02-15T08:19:15.580Z,66.74
2017-02-15T08:20:15.609Z,66.83
2017-02-15T08:21:15.597Z,66.74
2017-02-15T08:22:15.601Z,66.54
2017-02-15T08:23:15.627Z,66.83
2017-02-15T08:24:15.634Z,66.64
2017-02-15T08:25:15.244Z,67.4
2017-02-15T08:26:15.646Z,66.83
2017-02-15T08:27:15.273Z,66.64
2017-02-15T08:28:15.287Z,66.83
2017-02-15T08:29:15.680Z,66.64
2017-02-15T08:30:15.729Z,66.64
2017-02-15T08:31:15.719Z,66.64
2017-02-15T08:32:15.317Z,66.48
2017-02-15T08:33:15.322Z,66.74
2017-02-15T08:34:15.751Z,66.16
2017-02-15T08:35:15.736Z,66.96
2017-02-15T08:36:15.752Z,66.39
2017-02-15T08:37:15.370Z,66.48
2017-02-15T08:38:15.377Z,66.58
2017-02-15T08:39:15.809Z,66.67
2017-02-15T08:40:15.398Z,66.67
2017-02-15T08:41:15.835Z,66.67
2017-02-15T08:42:15.817Z,66.96
2017-02-15T08:43:15.460Z,67.05
2017-02-15T08:44:15.844Z,66.77
2017-02-15T08:45:15.447Z,67.05
2017-02-15T08:46:15.868Z,66.86
2017-02-15T08:47:15.913Z,66.58
2017-02-15T08:48:15.873Z,66.86
2017-02-15T08:49:15.886Z,66.77
2017-02-15T08:50:15.912Z,66.86
2017-02-15T08:51:15.922Z,66.77
2017-02-15T08:52:15.933Z,66.58
2017-02-15T08:53:15.926Z,66.39
2017-02-15T08:54:15.543Z,66.58
2017-02-15T08:55:15.959Z,66.33
2017-02-15T08:56:15.967Z,66.48
2017-02-15T08:57:15.580Z,66.23
2017-02-15T08:58:15.576Z,66.71
2017-02-15T08:59:16.004Z,66.52
2017-02-15T09:00:15.985Z,66.33
2017-02-15T09:01:16.036Z,66.14
2017-02-15T09:02:16.022Z,66.33
2017-02-15T09:03:16.035Z,66.89
2017-02-15T09:04:16.042Z,66.33
2017-02-15T09:05:16.042Z,66.14
2017-02-15T09:06:16.070Z,66.89
2017-02-15T09:07:15.680Z,66.14
2017-02-15T09:08:16.106Z,66.23
2017-02-15T09:09:16.104Z,65.95
2017-02-15T09:10:16.116Z,66.23
2017-02-15T09:11:16.128Z,66.42
2017-02-15T09:12:16.132Z,66.52
2017-02-15T09:13:16.154Z,66.14
2017-02-15T09:14:16.149Z,66.33
2017-02-15T09:15:16.162Z,65.85
2017-02-15T09:16:16.175Z,65.85
2017-02-15T09:17:16.197Z,65.69
2017-02-15T09:18:16.207Z,65.5
2017-02-15T09:19:16.193Z,65.79
2017-02-15T09:20:15.825Z,65.41
2017-02-15T09:21:15.824Z,65.5
2017-02-15T09:22:16.285Z,65.5
2017-02-15T09:23:15.856Z,65.31
2017-02-15T09:24:16.262Z,65.6
2017-02-15T09:25:16.278Z,65.5
2017-02-15T09:26:16.275Z,65.31
2017-02-15T09:27:16.309Z,65.12
2017-02-15T09:28:16.303Z,65.31
2017-02-15T09:29:16.323Z,65.41
2017-02-15T09:30:16.332Z,65.31
2017-02-15T09:31:16.327Z,64.84
2017-02-15T09:32:16.347Z,65.03
2017-02-15T09:33:16.380Z,65.03
2017-02-15T09:34:16.392Z,65.03
2017-02-15T09:35:16.382Z,64.65
2017-02-15T09:36:16.399Z,65.12
2017-02-15T09:37:16.021Z,64.94
2017-02-15T09:38:16.414Z,64.56
2017-02-15T09:39:16.598Z,64.78
2017-02-15T09:40:16.469Z,64.21
2017-02-15T09:41:16.459Z,64.49
2017-02-15T09:42:16.471Z,64.4
2017-02-15T09:43:16.470Z,64.4
2017-02-15T09:44:16.482Z,63.73
2017-02-15T09:45:16.503Z,63.92
2017-02-15T09:46:16.506Z,64.02
2017-02-15T09:47:16.125Z,64.4
2017-02-15T09:48:16.131Z,63.92
2017-02-15T09:49:16.539Z,63.92
2017-02-15T09:50:16.559Z,63.92
2017-02-15T09:51:16.567Z,63.83
2017-02-15T09:52:16.581Z,63.73
2017-02-15T09:53:16.589Z,63.45
2017-02-15T09:54:16.600Z,63.64
2017-02-15T09:55:16.603Z,63.54
2017-02-15T09:56:16.610Z,63.35
2017-02-15T09:57:16.640Z,63.64
2017-02-15T09:58:16.652Z,63.64
2017-02-15T09:59:16.643Z,63.54
2017-02-15T10:00:16.663Z,63.26
2017-02-15T10:01:16.276Z,63.35
2017-02-15T10:02:16.299Z,63.64
2017-02-15T10:03:16.711Z,63.17
2017-02-15T10:04:16.729Z,63.07
2017-02-15T10:05:16.713Z,63.07
2017-02-15T10:06:16.744Z,63.17
2017-02-15T10:07:16.775Z,62.91
2017-02-15T10:08:16.761Z,63.2
2017-02-15T10:09:16.390Z,62.59
2017-02-15T10:10:16.793Z,62.72
2017-02-15T10:11:16.793Z,62.81
2017-02-15T10:12:16.795Z,62.72
2017-02-15T10:13:16.830Z,62.53
2017-02-15T10:14:16.837Z,62.53
2017-02-15T10:15:16.868Z,62.91
2017-02-15T10:16:16.464Z,62.24
2017-02-15T10:17:16.873Z,62.62
2017-02-15T10:18:16.867Z,62.24
2017-02-15T10:19:16.905Z,61.96
2017-02-15T10:20:16.913Z,62.24
2017-02-15T10:21:16.922Z,62.43
2017-02-15T10:22:16.935Z,62.53
2017-02-15T10:23:16.945Z,62.43
2017-02-15T10:24:16.958Z,62.15
2017-02-15T10:25:16.967Z,61.77
2017-02-15T10:26:16.982Z,61.48
2017-02-15T10:27:16.985Z,61.68
2017-02-15T10:28:16.986Z,61.58
2017-02-15T10:29:16.611Z,61.58
2017-02-15T10:30:17.037Z,61.58
2017-02-15T10:31:17.058Z,61.39
2017-02-15T10:32:16.654Z,61.39
2017-02-15T10:33:17.069Z,61.58
2017-02-15T10:34:17.076Z,61.58
2017-02-15T10:35:17.075Z,61.52
2017-02-15T10:36:17.114Z,61.8
2017-02-15T10:37:17.107Z,61.58
2017-02-15T10:38:17.131Z,61.8
2017-02-15T10:39:17.141Z,61.32
2017-02-15T10:40:17.156Z,61.71
2017-02-15T10:41:17.167Z,61.13
2017-02-15T10:42:17.170Z,61.32
2017-02-15T10:43:17.211Z,61.13
2017-02-15T10:44:17.197Z,61.04
2017-02-15T10:45:17.205Z,60.85
2017-02-15T10:46:17.257Z,60.75
2017-02-15T10:47:17.231Z,61.23
2017-02-15T10:48:17.301Z,60.66
2017-02-15T10:49:17.268Z,60.75
2017-02-15T10:50:17.274Z,60.85
2017-02-15T10:51:17.299Z,61.07
2017-02-15T10:52:17.312Z,60.18
2017-02-15T10:53:17.324Z,60.66
2017-02-15T10:54:17.339Z,60.5
2017-02-15T10:55:17.341Z,60.31
2017-02-15T10:56:17.337Z,60.6
2017-02-15T10:57:17.379Z,60.41
2017-02-15T10:58:17.381Z,60.41
2017-02-15T10:59:17.399Z,60.31
2017-02-15T11:00:17.415Z,59.83
2017-02-15T11:01:17.416Z,59.93
2017-02-15T11:02:17.423Z,59.83
2017-02-15T11:03:17.466Z,59.93
2017-02-15T11:04:17.531Z,60.02
2017-02-15T11:05:17.474Z,59.74
2017-02-15T11:06:17.473Z,59.55
2017-02-15T11:07:17.490Z,59.74
2017-02-15T11:08:17.515Z,59.64
2017-02-15T11:09:17.514Z,59.64
2017-02-15T11:10:17.541Z,59.64
2017-02-15T11:11:17.537Z,59.96
2017-02-15T11:12:17.601Z,59.45
2017-02-15T11:13:17.561Z,59.2
2017-02-15T11:14:17.576Z,58.72
2017-02-15T11:15:17.591Z,59.29
2017-02-15T11:16:17.613Z,59.58
2017-02-15T11:17:17.644Z,58.81
2017-02-15T11:18:17.690Z,58.72
2017-02-15T11:19:17.763Z,58.91
2017-02-15T11:20:17.864Z,58.53
2017-02-15T11:21:17.680Z,58.62
2017-02-15T11:22:17.677Z,58.34
2017-02-15T11:23:17.762Z,58.34
2017-02-15T11:24:17.716Z,58.53
2017-02-15T11:25:17.760Z,57.87
2017-02-15T11:26:17.739Z,57.87
2017-02-15T11:27:17.763Z,57.67
2017-02-15T11:28:17.767Z,57.67
2017-02-15T11:29:17.790Z,58.08
2017-02-15T11:30:17.792Z,58.08
2017-02-15T11:31:17.814Z,57.99
2017-02-15T11:32:17.833Z,58.08
2017-02-15T11:33:17.439Z,57.99
2017-02-15T11:34:17.844Z,58.08
2017-02-15T11:35:17.873Z,58.08
2017-02-15T11:36:17.881Z,58.28
2017-02-15T11:37:17.887Z,57.89
2017-02-15T11:38:17.913Z,57.51
2017-02-15T11:39:17.932Z,57.8
2017-02-15T11:40:18.043Z,57.7
2017-02-15T11:41:17.931Z,57.51
2017-02-15T11:42:17.955Z,57.6
2017-02-15T11:43:17.968Z,57.07
2017-02-15T11:44:17.994Z,57.26
2017-02-15T11:45:17.996Z,57.26
2017-02-15T11:46:18.010Z,56.97
2017-02-15T11:47:18.080Z,57.07
2017-02-15T11:48:18.089Z,56.59
2017-02-15T11:49:18.059Z,56.87
2017-02-15T11:50:18.079Z,56.97
2017-02-15T11:51:18.106Z,56.49
2017-02-15T11:52:18.100Z,56.3
2017-02-15T11:53:18.111Z,56.49
2017-02-15T11:54:18.134Z,56.21
2017-02-15T11:55:18.148Z,56.21
2017-02-15T11:56:18.162Z,56.3
2017-02-15T11:57:18.171Z,56.11
2017-02-15T11:58:18.187Z,56.59
2017-02-15T11:59:18.197Z,55.83
2017-02-15T12:00:18.214Z,55.47
2017-02-15T12:01:18.227Z,55.26
2017-02-15T12:02:17.834Z,55.47
2017-02-15T12:03:18.261Z,55.85
2017-02-15T12:04:18.277Z,55.85
2017-02-15T12:05:18.394Z,55.28
2017-02-15T12:06:18.300Z,55.76
2017-02-15T12:07:18.395Z,55.47
2017-02-15T12:08:18.601Z,55.57
2017-02-15T12:09:18.443Z,55.47
2017-02-15T12:10:18.441Z,55.76
2017-02-15T12:11:18.361Z,55.28
2017-02-15T12:12:18.375Z,55.85
2017-02-15T12:13:18.405Z,55.38
2017-02-15T12:14:18.398Z,55.28
2017-02-15T12:15:18.435Z,55.76
2017-02-15T12:16:18.442Z,55.85
2017-02-15T12:17:18.447Z,55.47
2017-02-15T12:18:18.459Z,55.47
2017-02-15T12:19:18.491Z,55.66
2017-02-15T12:20:18.498Z,55.79
2017-02-15T12:21:18.534Z,55.28
2017-02-15T12:22:18.533Z,54.83
2017-02-15T12:23:18.544Z,54.61
2017-02-15T12:24:18.585Z,54.74
2017-02-15T12:25:18.585Z,55.41
2017-02-15T12:26:18.591Z,55.31
2017-02-15T12:27:18.616Z,54.93
2017-02-15T12:28:18.611Z,54.74
2017-02-15T12:29:18.636Z,54.74
2017-02-15T12:30:18.758Z,55.31
2017-02-15T12:31:18.749Z,54.74
2017-02-15T12:32:18.667Z,55.02
2017-02-15T12:33:18.709Z,55.6
2017-02-15T12:34:18.710Z,55.02
2017-02-15T12:35:18.730Z,55.21
2017-02-15T12:36:18.721Z,54.83
2017-02-15T12:37:18.754Z,55.41
2017-02-15T12:38:18.766Z,54.93
2017-02-15T12:39:18.769Z,54.64
2017-02-15T12:40:18.795Z,54.64
2017-02-15T12:41:18.828Z,54.83
2017-02-15T12:42:18.854Z,54.55
2017-02-15T12:43:18.837Z,54.83
2017-02-15T12:44:18.878Z,55.41
2017-02-15T12:45:18.883Z,54.83
2017-02-15T12:46:18.892Z,55.79
2017-02-15T12:47:18.911Z,55.5
2017-02-15T12:48:18.927Z,55.41
2017-02-15T12:49:18.940Z,55.79
2017-02-15T12:50:18.956Z,55.79
2017-02-15T12:51:19.071Z,56.55
2017-02-15T12:52:18.976Z,56.65
2017-02-15T12:53:18.996Z,56.93
2017-02-15T12:54:19.002Z,56.36
2017-02-15T12:55:19.045Z,56.65